Terminal Aerodrome Forecast
Issued by NWS Pocatello, ID

Home | Current Version | Previous Version | Text Only | Print | Product List | Glossary On
Versions: 1 2 3 4 5 6 7 8 9 10 11 12 13
853
FTUS45 KPIH 252322
TAFBYI
TAF
KBYI 252322Z 2600/2624 19009KT P6SM VCTS BKN050CB BKN090
     FM260200 19009KT P6SM VCSH SCT050
     FM260600 VRB06KT P6SM FEW050
     FM261800 27010G20KT P6SM VCSH SCT050=

USA.gov is the U.S. government's official web portal to all federal, state and local government web resources and services.